createdAt,value
2023-06-18T00:00:12.501Z,80.10
2023-06-18T00:02:40.996Z,80.10
2023-06-18T00:05:09.620Z,81.50
2023-06-18T00:07:37.738Z,82.40
2023-06-18T00:10:06.429Z,81.00
2023-06-18T00:12:34.410Z,80.90
2023-06-18T00:15:05.008Z,82.30
2023-06-18T00:17:33.902Z,83.80
2023-06-18T00:20:02.098Z,84.40
2023-06-18T00:22:30.181Z,84.40
2023-06-18T00:24:58.144Z,84.90
2023-06-18T00:27:26.284Z,84.80
2023-06-18T00:29:54.538Z,85.20
2023-06-18T00:32:23.911Z,85.60
2023-06-18T00:34:54.475Z,86.20
2023-06-18T00:37:23.163Z,87.00
2023-06-18T00:39:51.214Z,86.70
2023-06-18T00:42:19.586Z,86.70
2023-06-18T00:44:48.194Z,86.10
2023-06-18T00:47:16.508Z,85.20
2023-06-18T00:49:46.583Z,85.20
2023-06-18T00:52:15.608Z,85.20
2023-06-18T00:54:46.003Z,84.70
2023-06-18T00:57:15.552Z,84.80
2023-06-18T00:59:45.481Z,85.10
2023-06-18T01:02:15.195Z,85.90
2023-06-18T01:04:46.435Z,86.10
2023-06-18T01:07:17.558Z,85.30
2023-06-18T01:09:54.684Z,84.20
2023-06-18T01:12:23.778Z,84.20
2023-06-18T01:14:52.577Z,84.00
2023-06-18T01:17:23.688Z,83.80
2023-06-18T01:19:58.179Z,83.30
2023-06-18T01:22:34.039Z,83.30
2023-06-18T01:25:07.034Z,84.00
2023-06-18T01:27:41.594Z,83.80
2023-06-18T01:30:10.744Z,84.20
2023-06-18T01:32:39.372Z,84.40
2023-06-18T01:35:16.687Z,84.60
2023-06-18T01:37:58.184Z,85.20
2023-06-18T01:40:36.028Z,84.80
2023-06-18T01:43:13.177Z,84.80
2023-06-18T01:45:47.815Z,84.90
2023-06-18T01:48:17.881Z,84.40
2023-06-18T01:50:49.441Z,84.90
2023-06-18T01:53:19.689Z,84.40
2023-06-18T01:55:50.391Z,84.10
2023-06-18T01:58:18.959Z,84.40
2023-06-18T02:00:47.100Z,84.70
2023-06-18T02:03:15.121Z,84.10
2023-06-18T02:05:43.190Z,83.80
2023-06-18T02:08:12.587Z,83.50
2023-06-18T02:10:40.588Z,83.90
2023-06-18T02:13:09.021Z,83.80
2023-06-18T02:15:37.323Z,83.60
2023-06-18T02:18:05.703Z,83.10
2023-06-18T02:20:33.870Z,83.10
2023-06-18T02:23:01.901Z,84.30
2023-06-18T02:25:31.327Z,85.10
2023-06-18T02:27:59.569Z,85.40
2023-06-18T02:30:30.331Z,85.50
2023-06-18T02:32:59.897Z,85.90
2023-06-18T02:35:28.268Z,86.60
2023-06-18T02:37:56.624Z,88.10
2023-06-18T02:40:25.011Z,89.20
2023-06-18T02:42:54.542Z,89.70
2023-06-18T02:45:24.337Z,89.90
2023-06-18T02:47:52.431Z,89.20
2023-06-18T02:50:21.993Z,88.00
2023-06-18T02:52:50.368Z,87.30
2023-06-18T02:55:18.550Z,87.10
2023-06-18T02:57:47.834Z,88.20
2023-06-18T03:00:17.759Z,88.90
2023-06-18T03:02:46.127Z,88.40
2023-06-18T03:05:14.344Z,87.50
2023-06-18T03:07:42.459Z,87.00
2023-06-18T03:10:11.107Z,87.80
2023-06-18T03:12:39.185Z,87.60
2023-06-18T03:15:08.363Z,87.70
2023-06-18T03:17:37.825Z,87.10
2023-06-18T03:20:08.443Z,87.20
2023-06-18T03:22:36.456Z,87.30
2023-06-18T03:25:04.504Z,87.30
2023-06-18T03:27:32.459Z,86.90
2023-06-18T03:30:00.493Z,86.90
2023-06-18T03:32:30.640Z,87.40
2023-06-18T03:35:00.026Z,88.80
2023-06-18T03:37:29.193Z,89.60
2023-06-18T03:39:57.176Z,90.00
2023-06-18T03:42:26.288Z,90.20
2023-06-18T03:44:54.360Z,90.00
2023-06-18T03:47:22.475Z,90.10
2023-06-18T03:49:50.669Z,89.00
2023-06-18T03:52:20.013Z,89.00
2023-06-18T03:54:48.709Z,88.40
2023-06-18T03:57:16.883Z,88.50
2023-06-18T03:59:44.885Z,88.70
2023-06-18T04:02:15.366Z,88.30
2023-06-18T04:04:43.503Z,88.30
2023-06-18T04:07:11.690Z,88.50
2023-06-18T04:09:41.122Z,89.00
2023-06-18T04:12:10.478Z,88.60
2023-06-18T04:14:38.637Z,89.10
2023-06-18T04:17:06.901Z,88.80
2023-06-18T04:19:35.082Z,88.40
2023-06-18T04:22:03.222Z,87.40
2023-06-18T04:24:31.240Z,87.20
2023-06-18T04:27:00.659Z,87.80
2023-06-18T04:29:28.809Z,88.30
2023-06-18T04:31:56.905Z,89.00
2023-06-18T04:34:24.906Z,89.50
2023-06-18T04:36:52.896Z,89.80
2023-06-18T04:39:21.539Z,89.80
2023-06-18T04:41:49.556Z,89.60
2023-06-18T04:44:19.474Z,89.50
2023-06-18T04:46:47.499Z,89.40
2023-06-18T04:49:16.268Z,89.40
2023-06-18T04:51:44.843Z,88.90
2023-06-18T04:54:13.314Z,89.00
2023-06-18T04:56:41.476Z,89.00
2023-06-18T04:59:09.520Z,89.10
2023-06-18T05:01:38.920Z,88.90
2023-06-18T05:04:07.097Z,88.80
2023-06-18T05:06:35.154Z,88.30
2023-06-18T05:09:03.700Z,87.80
2023-06-18T05:11:31.684Z,87.60
2023-06-18T05:13:59.929Z,87.40
2023-06-18T05:16:27.947Z,87.10
2023-06-18T05:18:57.401Z,86.80
2023-06-18T05:21:26.872Z,86.70
2023-06-18T05:23:55.078Z,86.80
2023-06-18T05:26:23.198Z,86.60
2023-06-18T05:28:51.655Z,86.90
2023-06-18T05:31:19.800Z,87.00
2023-06-18T05:33:47.937Z,87.00
2023-06-18T05:36:17.515Z,87.10
2023-06-18T05:38:45.617Z,86.70
2023-06-18T05:41:13.604Z,86.50
2023-06-18T05:43:41.587Z,85.70
2023-06-18T05:46:09.628Z,85.10
2023-06-18T05:48:37.671Z,85.20
2023-06-18T05:51:05.969Z,85.10
2023-06-18T05:53:35.431Z,84.90
2023-06-18T05:56:03.494Z,85.10
2023-06-18T05:58:31.600Z,85.30
2023-06-18T06:00:59.600Z,84.80
2023-06-18T06:03:27.661Z,84.40
2023-06-18T06:05:55.979Z,84.60
2023-06-18T06:08:24.190Z,83.60
2023-06-18T06:10:53.908Z,83.20
2023-06-18T06:13:22.230Z,83.20
2023-06-18T06:15:50.234Z,82.20
2023-06-18T06:18:18.256Z,82.10
2023-06-18T06:20:46.337Z,81.80
2023-06-18T06:23:14.329Z,81.80
2023-06-18T06:25:42.513Z,80.60
2023-06-18T06:28:12.591Z,80.60
2023-06-18T06:30:40.704Z,79.30
2023-06-18T06:33:08.757Z,79.80
2023-06-18T06:35:37.720Z,79.10
2023-06-18T06:38:05.769Z,79.30
2023-06-18T06:40:33.975Z,78.20
2023-06-18T06:43:02.070Z,79.70
2023-06-18T06:45:31.514Z,79.10
2023-06-18T06:47:59.907Z,80.10
2023-06-18T06:50:28.035Z,78.80
2023-06-18T06:52:56.149Z,78.60
2023-06-18T06:55:24.261Z,78.90
2023-06-18T06:57:52.237Z,78.00
2023-06-18T07:00:20.593Z,77.60
2023-06-18T07:02:50.417Z,77.70
2023-06-18T07:05:18.911Z,77.10
2023-06-18T07:07:47.321Z,77.60
2023-06-18T07:10:15.395Z,77.50
2023-06-18T07:12:43.353Z,78.00
2023-06-18T07:15:12.097Z,77.40
2023-06-18T07:17:40.194Z,75.80
2023-06-18T07:20:10.452Z,75.70
2023-06-18T07:22:38.425Z,75.10
2023-06-18T07:25:07.371Z,75.20
2023-06-18T07:27:36.470Z,74.30
2023-06-18T07:30:04.941Z,74.80
2023-06-18T07:32:33.169Z,76.20
2023-06-18T07:35:01.271Z,76.30
2023-06-18T07:37:30.650Z,76.80
2023-06-18T07:39:58.878Z,76.60
2023-06-18T07:42:26.905Z,75.50
2023-06-18T07:44:54.894Z,76.40
2023-06-18T07:47:23.150Z,75.60
2023-06-18T07:49:51.245Z,74.70
2023-06-18T07:52:19.602Z,73.10
2023-06-18T07:54:48.970Z,72.40
2023-06-18T07:57:17.116Z,73.60
2023-06-18T07:59:45.220Z,72.50
2023-06-18T08:02:13.248Z,71.70
2023-06-18T08:04:41.712Z,73.80
2023-06-18T08:07:09.754Z,71.70
2023-06-18T08:09:37.756Z,70.70
2023-06-18T08:12:08.684Z,72.10
2023-06-18T08:14:36.686Z,70.70
2023-06-18T08:17:04.973Z,71.20
2023-06-18T08:19:33.663Z,70.30
2023-06-18T08:22:02.470Z,70.30
2023-06-18T08:24:30.484Z,70.30
2023-06-18T08:26:58.501Z,69.80
2023-06-18T08:29:27.943Z,69.20
2023-06-18T08:31:55.936Z,70.90
2023-06-18T08:34:25.108Z,69.80
2023-06-18T08:36:53.096Z,70.50
2023-06-18T08:39:21.111Z,71.70
2023-06-18T08:41:49.203Z,69.70
2023-06-18T08:44:17.612Z,67.50
2023-06-18T08:46:51.427Z,68.80
2023-06-18T08:49:21.216Z,68.20
2023-06-18T08:51:52.144Z,65.90
2023-06-18T08:54:21.069Z,64.90
2023-06-18T08:56:56.755Z,65.60
2023-06-18T08:59:26.448Z,66.70
2023-06-18T09:01:56.362Z,65.70
2023-06-18T09:04:25.713Z,65.90
2023-06-18T09:06:55.067Z,66.30
2023-06-18T09:09:23.400Z,65.90
2023-06-18T09:11:51.404Z,66.90
2023-06-18T09:14:19.451Z,66.90
2023-06-18T09:16:47.458Z,66.50
2023-06-18T09:19:17.435Z,67.60
2023-06-18T09:21:46.314Z,66.40
2023-06-18T09:24:18.365Z,66.00
2023-06-18T09:26:46.917Z,65.60
2023-06-18T09:29:15.431Z,66.90
2023-06-18T09:31:46.109Z,67.40
2023-06-18T09:34:17.911Z,66.70
2023-06-18T09:36:47.169Z,67.10
2023-06-18T09:39:19.829Z,67.50
2023-06-18T09:41:49.020Z,67.60
2023-06-18T09:44:17.930Z,68.50
2023-06-18T09:46:47.302Z,68.80
2023-06-18T09:49:19.431Z,68.20
2023-06-18T09:51:51.644Z,69.10
2023-06-18T09:54:20.317Z,68.60
2023-06-18T09:56:58.582Z,69.40
2023-06-18T09:59:27.097Z,70.50
2023-06-18T10:01:56.088Z,69.50
2023-06-18T10:04:26.650Z,69.40
2023-06-18T10:06:59.020Z,70.00
2023-06-18T10:09:33.463Z,69.10
2023-06-18T10:12:02.637Z,69.20
2023-06-18T10:14:31.931Z,69.00
2023-06-18T10:17:10.302Z,68.90
2023-06-18T10:19:48.714Z,68.70
2023-06-18T10:22:19.280Z,68.90
2023-06-18T10:24:52.106Z,68.30
2023-06-18T10:27:20.763Z,67.30
2023-06-18T10:29:48.912Z,67.20
2023-06-18T10:32:17.643Z,67.30
2023-06-18T10:34:47.655Z,67.20
2023-06-18T10:37:16.974Z,66.40
2023-06-18T10:39:45.790Z,65.80
2023-06-18T10:42:16.548Z,65.90
2023-06-18T10:44:52.570Z,66.10
2023-06-18T10:47:22.190Z,65.70
2023-06-18T10:50:18.012Z,65.20
2023-06-18T10:52:49.658Z,66.00
2023-06-18T10:55:31.466Z,66.50
2023-06-18T10:58:02.749Z,65.00
2023-06-18T11:00:38.100Z,65.00
2023-06-18T11:03:09.100Z,63.80
2023-06-18T11:05:46.226Z,64.50
2023-06-18T11:08:15.815Z,64.20
2023-06-18T11:10:46.571Z,63.80
2023-06-18T11:13:15.350Z,63.00
2023-06-18T11:16:00.516Z,63.40
2023-06-18T11:18:29.718Z,63.80
2023-06-18T11:21:00.869Z,63.60
2023-06-18T11:23:32.347Z,63.80
2023-06-18T11:26:00.918Z,62.60
2023-06-18T11:28:28.932Z,62.60
2023-06-18T11:30:59.668Z,63.30
2023-06-18T11:33:29.266Z,62.80
2023-06-18T11:36:10.312Z,62.90
2023-06-18T11:38:38.884Z,63.00
2023-06-18T11:41:06.910Z,61.70
2023-06-18T11:43:48.360Z,61.90
2023-06-18T11:46:30.867Z,61.80
2023-06-18T11:49:00.564Z,61.40
2023-06-18T11:51:32.225Z,61.10
2023-06-18T11:54:00.868Z,60.30
2023-06-18T11:56:31.309Z,59.60
2023-06-18T11:59:00.982Z,59.70
2023-06-18T12:01:30.078Z,59.90
2023-06-18T12:04:06.319Z,60.40
2023-06-18T12:06:36.296Z,60.80
2023-06-18T12:09:08.896Z,60.30
2023-06-18T12:11:49.761Z,60.30
2023-06-18T12:14:32.929Z,59.90
2023-06-18T12:17:07.578Z,59.80
2023-06-18T12:19:36.834Z,57.90
2023-06-18T12:22:06.601Z,58.10
2023-06-18T12:24:34.722Z,59.20
2023-06-18T12:27:03.044Z,58.00
2023-06-18T12:29:31.270Z,58.60
2023-06-18T12:32:06.458Z,58.00
2023-06-18T12:34:36.691Z,58.20
2023-06-18T12:37:06.587Z,58.40
2023-06-18T12:39:37.669Z,58.70
2023-06-18T12:42:10.836Z,58.00
2023-06-18T12:44:40.425Z,57.60
2023-06-18T12:47:09.140Z,58.50
2023-06-18T12:49:40.119Z,59.30
2023-06-18T12:52:18.453Z,56.60
2023-06-18T12:54:48.056Z,56.50
2023-06-18T12:57:17.066Z,56.30
2023-06-18T12:59:54.129Z,55.50
2023-06-18T13:02:22.720Z,56.60
2023-06-18T13:04:51.434Z,56.50
2023-06-18T13:07:20.863Z,56.70
2023-06-18T13:09:48.959Z,55.30
2023-06-18T13:12:17.404Z,56.80
2023-06-18T13:14:45.385Z,56.90
2023-06-18T13:17:13.558Z,55.70
2023-06-18T13:19:58.285Z,56.00
2023-06-18T13:22:29.737Z,56.20
2023-06-18T13:24:58.747Z,54.00
2023-06-18T13:27:27.139Z,52.70
2023-06-18T13:29:55.280Z,53.80
2023-06-18T13:32:23.529Z,53.80
2023-06-18T13:34:52.010Z,54.20
2023-06-18T13:37:20.542Z,54.30
2023-06-18T13:39:50.665Z,55.60
2023-06-18T13:42:19.115Z,56.10
2023-06-18T13:44:47.131Z,56.20
2023-06-18T13:47:15.146Z,55.80
2023-06-18T13:49:43.664Z,55.70
2023-06-18T13:52:12.684Z,54.80
2023-06-18T13:54:40.690Z,54.60
2023-06-18T13:57:10.164Z,55.10
2023-06-18T13:59:38.318Z,55.50
2023-06-18T14:02:06.724Z,55.90
2023-06-18T14:04:36.850Z,55.80
2023-06-18T14:07:05.643Z,55.00
2023-06-18T14:09:33.811Z,53.40
2023-06-18T14:12:02.241Z,54.20
2023-06-18T14:14:32.857Z,53.30
2023-06-18T14:17:01.089Z,53.90
2023-06-18T14:19:29.325Z,53.60
2023-06-18T14:21:57.335Z,52.30
2023-06-18T14:24:25.415Z,52.90
2023-06-18T14:26:54.099Z,50.90
2023-06-18T14:29:22.095Z,50.00
2023-06-18T14:31:51.425Z,46.80
2023-06-18T14:34:19.721Z,43.50
2023-06-18T14:36:47.720Z,41.40
2023-06-18T14:39:15.714Z,40.90
2023-06-18T14:41:43.697Z,39.80
2023-06-18T14:44:11.667Z,37.40
2023-06-18T14:46:39.688Z,36.20
2023-06-18T14:49:09.261Z,36.60
2023-06-18T14:51:37.274Z,37.30
2023-06-18T14:54:12.868Z,36.80
2023-06-18T14:56:42.405Z,36.80
2023-06-18T14:59:10.481Z,35.40
2023-06-18T15:01:38.974Z,35.60
2023-06-18T15:04:08.945Z,36.00
2023-06-18T15:06:37.472Z,35.60
2023-06-18T15:09:06.800Z,34.20
2023-06-18T15:11:35.268Z,33.80
2023-06-18T15:14:03.295Z,35.00
2023-06-18T15:16:32.435Z,33.70
2023-06-18T15:19:00.478Z,33.30
2023-06-18T15:21:29.969Z,33.60
2023-06-18T15:23:58.067Z,34.70
2023-06-18T15:26:27.485Z,34.80
2023-06-18T15:28:55.602Z,34.20
2023-06-18T15:31:23.636Z,34.50
2023-06-18T15:33:51.979Z,34.40
2023-06-18T15:36:19.990Z,34.50
2023-06-18T15:38:50.051Z,35.20
2023-06-18T15:41:18.151Z,36.00
2023-06-18T15:43:46.267Z,37.20
2023-06-18T15:46:17.149Z,38.10
2023-06-18T15:48:45.839Z,39.30
2023-06-18T15:51:14.194Z,40.30
2023-06-18T15:53:43.888Z,41.40
2023-06-18T15:56:13.267Z,42.00
2023-06-18T15:58:41.249Z,42.50
2023-06-18T16:01:09.319Z,42.50
2023-06-18T16:03:37.313Z,44.00
2023-06-18T16:06:05.586Z,46.00
2023-06-18T16:08:33.624Z,45.70
2023-06-18T16:11:01.811Z,46.40
2023-06-18T16:13:31.313Z,46.90
2023-06-18T16:15:59.380Z,47.30
2023-06-18T16:18:27.388Z,46.60
2023-06-18T16:20:55.591Z,47.00
2023-06-18T16:23:23.600Z,47.00
2023-06-18T16:25:51.844Z,47.80
2023-06-18T16:28:19.801Z,47.90
2023-06-18T16:30:49.238Z,48.20
2023-06-18T16:33:17.259Z,47.30
2023-06-18T16:35:45.263Z,47.70
2023-06-18T16:38:13.227Z,49.20
2023-06-18T16:40:41.313Z,49.40
2023-06-18T16:43:09.324Z,49.40
2023-06-18T16:45:37.979Z,49.50
2023-06-18T16:48:07.814Z,50.50
2023-06-18T16:50:35.961Z,49.90
2023-06-18T16:53:03.952Z,50.90
2023-06-18T16:55:31.977Z,51.30
2023-06-18T16:58:00.041Z,51.20
2023-06-18T17:00:28.048Z,51.50
2023-06-18T17:02:56.094Z,52.10
2023-06-18T17:05:25.708Z,52.30
2023-06-18T17:07:53.812Z,52.40
2023-06-18T17:10:21.989Z,52.70
2023-06-18T17:12:50.046Z,52.90
2023-06-18T17:15:18.140Z,53.60
2023-06-18T17:17:46.467Z,53.20
2023-06-18T17:20:16.328Z,53.80
2023-06-18T17:22:45.949Z,53.90
2023-06-18T17:25:13.992Z,54.00
2023-06-18T17:27:41.986Z,53.80
2023-06-18T17:30:10.881Z,54.00
2023-06-18T17:32:38.941Z,54.90
2023-06-18T17:35:07.510Z,55.20
2023-06-18T17:37:35.603Z,55.00
2023-06-18T17:40:05.296Z,55.40
2023-06-18T17:42:33.285Z,55.60
2023-06-18T17:45:01.258Z,56.10
2023-06-18T17:47:29.408Z,56.60
2023-06-18T17:49:58.791Z,57.10
2023-06-18T17:52:26.866Z,57.40
2023-06-18T17:54:55.028Z,57.30
2023-06-18T17:57:24.510Z,57.90
2023-06-18T17:59:52.490Z,56.60
2023-06-18T18:02:20.545Z,57.00
2023-06-18T18:04:48.592Z,57.70
2023-06-18T18:07:16.583Z,58.40
2023-06-18T18:09:44.718Z,59.00
2023-06-18T18:12:12.780Z,59.10
2023-06-18T18:14:42.208Z,59.10
2023-06-18T18:17:10.226Z,59.10
2023-06-18T18:19:38.193Z,59.70
2023-06-18T18:22:06.716Z,60.40
2023-06-18T18:24:34.732Z,60.50
2023-06-18T18:27:02.747Z,60.20
2023-06-18T18:29:30.750Z,61.60
2023-06-18T18:32:00.781Z,61.90
2023-06-18T18:34:28.815Z,60.40
2023-06-18T18:36:58.312Z,59.90
2023-06-18T18:39:26.311Z,59.90
2023-06-18T18:41:54.405Z,60.60
2023-06-18T18:44:22.442Z,60.80
2023-06-18T18:46:50.410Z,60.40
2023-06-18T18:49:19.744Z,60.50
2023-06-18T18:51:47.735Z,60.30
2023-06-18T18:54:17.439Z,60.00
2023-06-18T18:56:45.443Z,60.20
2023-06-18T18:59:13.484Z,60.60
2023-06-18T19:01:43.064Z,60.70
2023-06-18T19:04:11.376Z,60.30
2023-06-18T19:06:40.722Z,61.10
2023-06-18T19:09:08.973Z,61.30
2023-06-18T19:11:37.082Z,61.80
2023-06-18T19:14:05.129Z,62.70
2023-06-18T19:16:33.135Z,63.00
2023-06-18T19:19:01.156Z,63.20
2023-06-18T19:21:29.203Z,63.30
2023-06-18T19:23:58.596Z,63.30
2023-06-18T19:26:26.882Z,64.20
2023-06-18T19:28:56.980Z,64.90
2023-06-18T19:31:24.979Z,64.60
2023-06-18T19:33:52.975Z,64.50
2023-06-18T19:36:21.006Z,64.70
2023-06-18T19:38:49.545Z,65.70
2023-06-18T19:41:18.916Z,66.00
2023-06-18T19:43:47.251Z,65.50
2023-06-18T19:46:15.254Z,66.30
2023-06-18T19:48:43.260Z,65.30
2023-06-18T19:51:11.282Z,65.40
2023-06-18T19:53:39.506Z,65.60
2023-06-18T19:56:07.788Z,65.70
2023-06-18T19:58:37.110Z,65.90
2023-06-18T20:01:05.326Z,66.00
2023-06-18T20:03:33.453Z,66.00
2023-06-18T20:06:01.485Z,66.30
2023-06-18T20:08:29.481Z,66.60
2023-06-18T20:10:58.715Z,67.30
2023-06-18T20:13:26.700Z,67.80
2023-06-18T20:15:57.285Z,68.10
2023-06-18T20:18:25.623Z,69.50
2023-06-18T20:20:54.798Z,70.10
2023-06-18T20:23:23.038Z,70.60
2023-06-18T20:25:51.052Z,71.20
2023-06-18T20:28:19.045Z,72.50
2023-06-18T20:30:47.094Z,72.60
2023-06-18T20:33:16.519Z,72.20
2023-06-18T20:35:44.645Z,72.30
2023-06-18T20:38:12.665Z,72.50
2023-06-18T20:40:40.686Z,73.10
2023-06-18T20:43:08.676Z,73.90
2023-06-18T20:45:36.838Z,74.50
2023-06-18T20:48:05.035Z,73.90
2023-06-18T20:50:35.706Z,74.70
2023-06-18T20:53:04.232Z,75.00
2023-06-18T20:55:32.211Z,76.10
2023-06-18T20:58:00.291Z,76.20
2023-06-18T21:00:28.457Z,76.20
2023-06-18T21:02:56.870Z,76.80
2023-06-18T21:05:24.974Z,78.00
2023-06-18T21:07:54.298Z,77.80
2023-06-18T21:10:22.658Z,77.30
2023-06-18T21:12:53.161Z,78.00
2023-06-18T21:15:21.182Z,78.00
2023-06-18T21:17:49.295Z,79.10
2023-06-18T21:20:17.419Z,79.20
2023-06-18T21:22:45.416Z,79.40
2023-06-18T21:25:15.659Z,79.90
2023-06-18T21:27:43.828Z,79.90
2023-06-18T21:30:12.397Z,80.20
2023-06-18T21:32:40.532Z,81.00
2023-06-18T21:35:09.092Z,80.90
2023-06-18T21:37:42.579Z,80.70
2023-06-18T21:40:11.808Z,81.00
2023-06-18T21:42:41.171Z,81.20
2023-06-18T21:45:09.826Z,81.40
2023-06-18T21:47:37.923Z,81.70
2023-06-18T21:50:06.647Z,81.60
2023-06-18T21:52:34.783Z,81.90
2023-06-18T21:55:02.846Z,82.30
2023-06-18T21:57:30.854Z,83.50
2023-06-18T22:00:00.345Z,83.10
2023-06-18T22:02:28.622Z,82.70
2023-06-18T22:04:56.649Z,82.50
2023-06-18T22:07:24.725Z,82.90
2023-06-18T22:09:52.822Z,83.20
2023-06-18T22:12:21.563Z,83.30
2023-06-18T22:14:50.517Z,82.50
2023-06-18T22:17:20.952Z,82.90
2023-06-18T22:19:49.045Z,83.30
2023-06-18T22:22:17.176Z,84.00
2023-06-18T22:24:46.554Z,83.00
2023-06-18T22:27:15.581Z,82.80
2023-06-18T22:29:43.667Z,83.50
2023-06-18T22:32:11.876Z,83.80
2023-06-18T22:34:43.241Z,83.80
2023-06-18T22:37:11.837Z,84.70
2023-06-18T22:39:40.024Z,85.40
2023-06-18T22:42:08.634Z,85.70
2023-06-18T22:44:36.692Z,85.30
2023-06-18T22:47:04.789Z,86.10
2023-06-18T22:49:32.838Z,85.70
2023-06-18T22:52:02.197Z,85.60
2023-06-18T22:54:30.198Z,86.10
2023-06-18T22:56:58.226Z,87.00
2023-06-18T22:59:26.324Z,86.80
2023-06-18T23:01:55.085Z,86.70
2023-06-18T23:04:23.122Z,86.70
2023-06-18T23:06:51.143Z,87.40
2023-06-18T23:09:20.573Z,87.80
2023-06-18T23:11:48.585Z,87.90
2023-06-18T23:14:18.931Z,87.20
2023-06-18T23:16:47.150Z,87.90
2023-06-18T23:19:15.305Z,88.40
2023-06-18T23:21:47.997Z,88.20
2023-06-18T23:24:17.162Z,88.20
2023-06-18T23:26:46.640Z,88.50
2023-06-18T23:29:14.660Z,88.80
2023-06-18T23:31:42.949Z,89.20
2023-06-18T23:34:10.962Z,89.20
2023-06-18T23:36:40.131Z,89.20
2023-06-18T23:39:08.693Z,89.30
2023-06-18T23:41:36.702Z,89.60
2023-06-18T23:44:06.332Z,90.00
2023-06-18T23:46:34.407Z,89.80
2023-06-18T23:49:02.493Z,89.90
2023-06-18T23:51:30.482Z,90.00
2023-06-18T23:53:58.486Z,90.20
2023-06-18T23:56:26.507Z,90.30
2023-06-18T23:58:54.694Z,90.20
